Time;durP1;ratioP1;P1;durP2;ratioP2;P2;SDS_P1;SDS_P2;PMS_P1;PMS_P2;Temp;Humidity;BMP_temperature;BMP_pressure;BME280_temperature;BME280_humidity;BME280_pressure;Samples;Min_cycle;Max_cycle;Signal;HPM_P1;HPM_P2
2022/01/07 00:01:24;;;;;;;2.03;1.40;;;;;;;;;;4981533;28;20206;-78
2022/01/07 00:03:52;;;;;;;2.10;1.23;;;;;;;;;;4982008;28;20213;-77
2022/01/07 00:06:20;;;;;;;4.47;1.83;;;;;;;;;;4982724;28;20205;-77
2022/01/07 00:08:47;;;;;;;0.90;0.90;;;;;;;;;;4980814;28;20198;-74
2022/01/07 00:11:14;;;;;;;1.20;1.10;;;;;;;;;;4982664;28;20213;-78
2022/01/07 00:13:42;;;;;;;0.80;0.77;;;;;;;;;;4982599;28;20233;-77
2022/01/07 00:16:11;;;;;;;2.70;0.87;;;;;;;;;;4982651;28;20201;-78
2022/01/07 00:18:41;;;;;;;1.37;1.27;;;;;;;;;;4979644;28;20928;-76
2022/01/07 00:21:09;;;;;;;5.33;1.17;;;;;;;;;;4982149;28;20206;-73
2022/01/07 00:23:37;;;;;;;0.93;0.80;;;;;;;;;;4984884;28;20205;-76
2022/01/07 00:26:04;;;;;;;7.23;2.37;;;;;;;;;;4980051;28;20210;-77
2022/01/07 00:28:32;;;;;;;7.20;2.30;;;;;;;;;;4980792;28;20296;-78
2022/01/07 00:30:59;;;;;;;1.17;0.80;;;;;;;;;;4982960;28;20209;-78
2022/01/07 00:33:27;;;;;;;2.90;1.30;;;;;;;;;;4980858;28;20336;-77
2022/01/07 00:35:56;;;;;;;0.67;0.60;;;;;;;;;;4981085;28;20600;-77
2022/01/07 00:38:24;;;;;;;2.67;1.67;;;;;;;;;;4982853;28;20230;-78
2022/01/07 00:40:51;;;;;;;0.20;0.20;;;;;;;;;;4981664;28;20582;-78
2022/01/07 00:43:19;;;;;;;1.90;1.30;;;;;;;;;;4980761;28;20218;-79
2022/01/07 00:45:46;;;;;;;3.30;1.47;;;;;;;;;;4984870;28;20209;-76
2022/01/07 00:48:14;;;;;;;2.53;1.50;;;;;;;;;;4981162;28;20583;-79
2022/01/07 00:50:41;;;;;;;3.77;1.10;;;;;;;;;;4982927;28;20213;-76
2022/01/07 00:53:10;;;;;;;2.13;1.30;;;;;;;;;;4982309;28;20225;-75
2022/01/07 00:55:38;;;;;;;3.30;1.90;;;;;;;;;;4980829;28;20198;-77
2022/01/07 00:58:06;;;;;;;2.20;1.77;;;;;;;;;;4980327;28;20240;-78
2022/01/07 01:00:34;;;;;;;0.80;0.80;;;;;;;;;;4980105;28;20205;-77
2022/01/07 01:03:03;;;;;;;2.70;2.47;;;;;;;;;;4983459;28;20205;-78
2022/01/07 01:05:30;;;;;;;0.93;0.93;;;;;;;;;;4980270;28;20210;-77
2022/01/07 01:07:58;;;;;;;1.50;1.30;;;;;;;;;;4979820;28;20197;-77
2022/01/07 01:10:27;;;;;;;4.87;2.10;;;;;;;;;;4983088;28;20194;-78
2022/01/07 01:12:55;;;;;;;2.73;1.90;;;;;;;;;;4978546;28;20225;-78
2022/01/07 01:15:24;;;;;;;2.10;1.53;;;;;;;;;;4979662;28;20671;-78
2022/01/07 01:17:52;;;;;;;2.07;1.13;;;;;;;;;;4981956;28;20685;-78
2022/01/07 01:20:19;;;;;;;2.57;1.10;;;;;;;;;;4981680;28;20235;-79
2022/01/07 01:22:47;;;;;;;1.20;1.13;;;;;;;;;;4980551;28;20284;-79
2022/01/07 01:25:15;;;;;;;5.07;2.67;;;;;;;;;;4985587;28;20312;-79
2022/01/07 01:27:44;;;;;;;2.80;2.33;;;;;;;;;;4985008;28;20213;-78
2022/01/07 01:30:12;;;;;;;0.73;0.73;;;;;;;;;;4985462;28;20202;-78
2022/01/07 01:32:40;;;;;;;1.47;1.43;;;;;;;;;;4986932;28;20236;-78
2022/01/07 01:35:08;;;;;;;8.23;2.67;;;;;;;;;;4985822;28;20216;-80
2022/01/07 01:37:36;;;;;;;0.80;0.67;;;;;;;;;;4984742;28;20198;-77
2022/01/07 01:40:03;;;;;;;1.53;1.40;;;;;;;;;;4986399;28;20892;-79
2022/01/07 01:42:31;;;;;;;2.63;1.93;;;;;;;;;;4983959;28;20296;-77
2022/01/07 01:45:00;;;;;;;1.53;1.43;;;;;;;;;;4984454;28;20252;-78
2022/01/07 01:47:27;;;;;;;0.83;0.73;;;;;;;;;;4987813;28;20212;-79
2022/01/07 01:49:55;;;;;;;0.93;0.93;;;;;;;;;;4984243;28;20294;-78
2022/01/07 01:52:22;;;;;;;1.87;1.73;;;;;;;;;;4985482;28;20213;-78
2022/01/07 01:54:50;;;;;;;1.73;1.30;;;;;;;;;;4985264;28;20210;-79
2022/01/07 01:57:17;;;;;;;3.07;2.23;;;;;;;;;;4980297;28;22041;-79
2022/01/07 01:59:45;;;;;;;1.57;1.27;;;;;;;;;;4979271;28;20210;-79
2022/01/07 02:02:13;;;;;;;2.00;0.80;;;;;;;;;;4980080;28;20208;-78
2022/01/07 02:04:41;;;;;;;8.20;1.40;;;;;;;;;;4978018;28;20209;-79
2022/01/07 02:07:09;;;;;;;0.70;0.70;;;;;;;;;;4979798;28;20205;-78
2022/01/07 02:09:37;;;;;;;2.33;1.70;;;;;;;;;;4981307;28;20217;-77
2022/01/07 02:12:05;;;;;;;5.13;2.87;;;;;;;;;;4980511;28;20746;-79
2022/01/07 02:14:34;;;;;;;2.07;1.20;;;;;;;;;;4978514;28;20240;-77
2022/01/07 02:17:05;;;;;;;0.60;0.60;;;;;;;;;;4978977;28;20205;-78
2022/01/07 02:19:34;;;;;;;3.13;1.10;;;;;;;;;;4978637;28;20579;-78
2022/01/07 02:22:02;;;;;;;6.23;1.80;;;;;;;;;;4979884;28;20432;-77
2022/01/07 02:24:30;;;;;;;1.57;1.47;;;;;;;;;;4981891;28;20280;-78
2022/01/07 02:26:57;;;;;;;1.00;1.00;;;;;;;;;;4982429;28;20559;-77
2022/01/07 02:29:26;;;;;;;1.83;1.73;;;;;;;;;;4980253;28;20220;-77
2022/01/07 02:31:53;;;;;;;1.10;1.10;;;;;;;;;;4979082;28;20905;-77
2022/01/07 02:34:22;;;;;;;2.47;2.27;;;;;;;;;;4979283;28;20326;-77
2022/01/07 02:36:50;;;;;;;1.93;1.60;;;;;;;;;;4978593;28;20229;-76
2022/01/07 02:39:18;;;;;;;1.97;1.87;;;;;;;;;;4979259;28;20225;-77
2022/01/07 02:41:45;;;;;;;2.57;2.07;;;;;;;;;;4981818;28;20197;-78
2022/01/07 02:44:13;;;;;;;2.73;2.53;;;;;;;;;;4980816;28;20209;-77
2022/01/07 02:46:41;;;;;;;1.73;1.10;;;;;;;;;;4979952;28;20213;-77
2022/01/07 02:49:09;;;;;;;1.93;1.83;;;;;;;;;;4979568;28;20217;-77
2022/01/07 02:51:37;;;;;;;2.23;1.67;;;;;;;;;;4981117;28;20209;-76
2022/01/07 02:54:07;;;;;;;1.27;1.07;;;;;;;;;;4979609;28;20587;-76
2022/01/07 02:56:34;;;;;;;0.63;0.63;;;;;;;;;;4986265;28;20227;-76
2022/01/07 02:59:02;;;;;;;1.73;1.07;;;;;;;;;;4983931;28;20220;-75
2022/01/07 03:01:30;;;;;;;1.40;1.17;;;;;;;;;;4982666;28;20683;-78
2022/01/07 03:03:57;;;;;;;3.03;2.27;;;;;;;;;;4983094;28;20197;-77
2022/01/07 03:06:24;;;;;;;1.57;1.33;;;;;;;;;;4983210;28;20201;-77
2022/01/07 03:08:52;;;;;;;1.27;1.17;;;;;;;;;;4981929;28;20209;-77
2022/01/07 03:11:21;;;;;;;0.37;0.37;;;;;;;;;;4983744;28;20213;-77
2022/01/07 03:13:49;;;;;;;0.40;0.40;;;;;;;;;;4983332;28;20233;-76
2022/01/07 03:16:16;;;;;;;0.73;0.73;;;;;;;;;;4982873;28;20575;-75
2022/01/07 03:18:44;;;;;;;5.17;2.27;;;;;;;;;;4981501;28;20692;-77
2022/01/07 03:21:11;;;;;;;1.83;1.20;;;;;;;;;;4983575;28;20217;-77
2022/01/07 03:23:40;;;;;;;0.80;0.80;;;;;;;;;;4983636;28;20216;-76
2022/01/07 03:26:08;;;;;;;0.73;0.73;;;;;;;;;;4987085;28;20201;-76
2022/01/07 03:28:38;;;;;;;1.00;0.70;;;;;;;;;;4989661;28;20214;-76
2022/01/07 03:31:06;;;;;;;0.10;0.10;;;;;;;;;;4988255;28;20210;-76
2022/01/07 03:33:34;;;;;;;2.60;1.97;;;;;;;;;;4988925;28;20232;-76
2022/01/07 03:36:01;;;;;;;3.93;1.87;;;;;;;;;;4989356;28;20198;-75
2022/01/07 03:38:28;;;;;;;2.17;1.97;;;;;;;;;;4986465;28;20205;-76
2022/01/07 03:40:56;;;;;;;0.67;0.67;;;;;;;;;;4989920;28;20241;-77
2022/01/07 03:43:23;;;;;;;1.90;1.70;;;;;;;;;;4989685;28;20202;-76
2022/01/07 03:45:52;;;;;;;4.03;3.63;;;;;;;;;;4986959;28;20205;-76
2022/01/07 03:48:19;;;;;;;1.13;0.90;;;;;;;;;;4989298;28;20210;-77
2022/01/07 03:50:47;;;;;;;1.77;1.30;;;;;;;;;;4989848;28;20655;-76
2022/01/07 03:53:14;;;;;;;2.00;1.37;;;;;;;;;;4987568;28;20210;-75
2022/01/07 03:55:42;;;;;;;0.77;0.77;;;;;;;;;;4984265;28;20205;-76
2022/01/07 03:58:09;;;;;;;4.13;0.80;;;;;;;;;;4981487;28;20213;-77
2022/01/07 04:00:38;;;;;;;1.20;1.20;;;;;;;;;;4981321;28;20208;-75
2022/01/07 04:03:08;;;;;;;0.53;0.53;;;;;;;;;;4979670;28;20206;-76
2022/01/07 04:05:35;;;;;;;0.50;0.50;;;;;;;;;;4981473;28;20552;-76
2022/01/07 04:08:03;;;;;;;0.27;0.27;;;;;;;;;;4981754;28;20201;-76
2022/01/07 04:10:30;;;;;;;1.60;1.50;;;;;;;;;;4982586;28;20209;-76
2022/01/07 04:12:57;;;;;;;0.60;0.30;;;;;;;;;;4984946;28;20276;-76
2022/01/07 04:15:25;;;;;;;2.33;2.13;;;;;;;;;;4982431;28;20878;-75
2022/01/07 04:17:54;;;;;;;1.40;1.30;;;;;;;;;;4981416;28;20217;-76
2022/01/07 04:20:24;;;;;;;1.87;1.73;;;;;;;;;;4981526;28;20206;-77
2022/01/07 04:22:53;;;;;;;0.73;0.67;;;;;;;;;;4984615;28;20676;-76
2022/01/07 04:25:21;;;;;;;2.30;1.20;;;;;;;;;;4981502;28;20240;-76
2022/01/07 04:27:49;;;;;;;1.00;0.90;;;;;;;;;;4984969;28;20202;-77
2022/01/07 04:30:17;;;;;;;0.50;0.50;;;;;;;;;;4982959;28;20212;-76
2022/01/07 04:32:44;;;;;;;1.50;0.97;;;;;;;;;;4983769;28;20221;-76
2022/01/07 04:35:12;;;;;;;1.70;1.60;;;;;;;;;;4979990;28;20287;-76
2022/01/07 04:37:41;;;;;;;0.57;0.57;;;;;;;;;;4983601;28;20213;-76
2022/01/07 04:40:10;;;;;;;6.30;2.17;;;;;;;;;;4982080;28;20218;-76
2022/01/07 04:42:38;;;;;;;0.73;0.73;;;;;;;;;;4982969;28;20202;-76
2022/01/07 04:45:05;;;;;;;0.00;0.00;;;;;;;;;;4983251;28;20240;-76
2022/01/07 04:47:35;;;;;;;1.57;1.47;;;;;;;;;;4981204;28;20202;-76
2022/01/07 04:50:02;;;;;;;4.87;1.43;;;;;;;;;;4982037;28;20619;-76
2022/01/07 04:52:30;;;;;;;1.30;1.20;;;;;;;;;;4983593;28;20194;-76
2022/01/07 04:54:59;;;;;;;3.17;2.53;;;;;;;;;;4981150;28;20245;-76
2022/01/07 04:57:26;;;;;;;0.10;0.10;;;;;;;;;;4981460;28;20214;-75
2022/01/07 04:59:53;;;;;;;0.10;0.10;;;;;;;;;;4980716;28;20212;-76
2022/01/07 05:02:21;;;;;;;2.20;1.93;;;;;;;;;;4979544;28;20217;-76
2022/01/07 05:04:49;;;;;;;0.73;0.73;;;;;;;;;;4972094;28;20217;-75
2022/01/07 05:07:17;;;;;;;3.30;2.43;;;;;;;;;;4972938;28;20205;-76
2022/01/07 05:09:44;;;;;;;1.97;1.40;;;;;;;;;;4972941;28;20221;-74
2022/01/07 05:12:13;;;;;;;0.10;0.10;;;;;;;;;;4974143;28;20209;-75
2022/01/07 05:14:41;;;;;;;0.30;0.30;;;;;;;;;;4972674;28;20221;-75
2022/01/07 05:17:08;;;;;;;1.47;1.47;;;;;;;;;;4974421;28;20213;-75
2022/01/07 05:19:35;;;;;;;0.10;0.10;;;;;;;;;;4975823;28;20667;-74
2022/01/07 05:22:03;;;;;;;0.93;0.67;;;;;;;;;;4976267;28;20229;-75
2022/01/07 05:24:30;;;;;;;0.97;0.67;;;;;;;;;;4973277;28;20229;-75
2022/01/07 05:26:57;;;;;;;0.50;0.50;;;;;;;;;;4977750;28;20205;-75
2022/01/07 05:29:28;;;;;;;1.40;1.30;;;;;;;;;;4980480;28;20224;-74
2022/01/07 05:31:56;;;;;;;0.80;0.80;;;;;;;;;;4978094;28;20300;-74
2022/01/07 05:34:23;;;;;;;0.20;0.20;;;;;;;;;;4976738;28;20582;-74
2022/01/07 05:36:50;;;;;;;0.87;0.87;;;;;;;;;;4979148;28;20205;-75
2022/01/07 05:39:18;;;;;;;1.47;1.37;;;;;;;;;;4978384;28;20205;-75
2022/01/07 05:41:45;;;;;;;0.00;0.00;;;;;;;;;;4979619;28;20280;-74
2022/01/07 05:44:13;;;;;;;1.13;1.03;;;;;;;;;;4979433;28;20210;-74
2022/01/07 05:46:42;;;;;;;1.87;0.97;;;;;;;;;;4980456;28;20198;-75
2022/01/07 05:49:09;;;;;;;4.67;1.37;;;;;;;;;;4978546;28;20966;-74
2022/01/07 05:51:37;;;;;;;0.53;0.53;;;;;;;;;;4979253;28;20206;-75
2022/01/07 05:54:04;;;;;;;4.23;1.40;;;;;;;;;;4979850;28;20221;-75
2022/01/07 05:56:32;;;;;;;3.47;1.87;;;;;;;;;;4972536;28;20205;-75
2022/01/07 05:58:59;;;;;;;1.93;1.50;;;;;;;;;;4972878;28;20272;-75
2022/01/07 06:01:26;;;;;;;0.43;0.43;;;;;;;;;;4976852;28;20201;-75
2022/01/07 06:03:55;;;;;;;0.97;0.80;;;;;;;;;;4974176;28;20210;-75
2022/01/07 06:06:23;;;;;;;0.20;0.20;;;;;;;;;;4972454;28;20583;-75
2022/01/07 06:08:50;;;;;;;1.60;1.27;;;;;;;;;;4973819;28;20210;-74
2022/01/07 06:11:18;;;;;;;0.93;0.93;;;;;;;;;;4970984;28;20217;-74
2022/01/07 06:13:46;;;;;;;0.47;0.43;;;;;;;;;;4974600;28;20198;-74
2022/01/07 06:16:13;;;;;;;3.80;1.53;;;;;;;;;;4974581;28;20221;-73
2022/01/07 06:18:43;;;;;;;1.17;1.10;;;;;;;;;;4974332;28;20595;-73
2022/01/07 06:21:13;;;;;;;0.30;0.30;;;;;;;;;;4972110;28;20206;-73
2022/01/07 06:23:40;;;;;;;1.17;1.07;;;;;;;;;;4972903;28;20201;-74
2022/01/07 06:26:08;;;;;;;1.27;1.17;;;;;;;;;;4974365;28;20226;-74
2022/01/07 06:28:35;;;;;;;1.37;1.27;;;;;;;;;;4972281;28;20206;-74
2022/01/07 06:31:02;;;;;;;0.73;0.60;;;;;;;;;;4972747;28;20218;-74
2022/01/07 06:33:30;;;;;;;0.77;0.60;;;;;;;;;;4974565;28;20244;-74
2022/01/07 06:35:57;;;;;;;1.60;1.00;;;;;;;;;;4973051;28;20230;-74
2022/01/07 06:38:26;;;;;;;2.47;1.50;;;;;;;;;;4975405;28;20207;-74
2022/01/07 06:40:53;;;;;;;1.20;0.93;;;;;;;;;;4973328;28;20663;-74
2022/01/07 06:43:21;;;;;;;0.70;0.70;;;;;;;;;;4971489;28;20211;-73
2022/01/07 06:45:48;;;;;;;1.93;1.83;;;;;;;;;;4976110;28;20823;-74
2022/01/07 06:48:15;;;;;;;0.70;0.70;;;;;;;;;;4970509;28;20232;-74
2022/01/07 06:50:43;;;;;;;0.10;0.10;;;;;;;;;;4973679;28;20202;-73
2022/01/07 06:53:10;;;;;;;0.73;0.73;;;;;;;;;;4972299;28;20232;-74
2022/01/07 06:55:39;;;;;;;1.47;1.37;;;;;;;;;;4972676;28;20977;-74
2022/01/07 06:58:06;;;;;;;2.53;2.27;;;;;;;;;;4972772;28;20217;-74
2022/01/07 07:00:34;;;;;;;3.80;2.10;;;;;;;;;;4972925;28;20579;-74
2022/01/07 07:03:01;;;;;;;0.93;0.67;;;;;;;;;;4980111;28;20198;-74
2022/01/07 07:05:29;;;;;;;1.90;1.43;;;;;;;;;;4976102;28;20688;-74
2022/01/07 07:07:56;;;;;;;6.00;1.97;;;;;;;;;;4977650;28;20232;-74
2022/01/07 07:10:23;;;;;;;0.83;0.83;;;;;;;;;;4973075;28;20587;-74
2022/01/07 07:12:53;;;;;;;0.47;0.40;;;;;;;;;;4975344;28;20206;-74
2022/01/07 07:15:20;;;;;;;0.00;0.00;;;;;;;;;;4979092;28;20233;-74
2022/01/07 07:17:48;;;;;;;6.50;2.17;;;;;;;;;;4980784;28;20679;-73
2022/01/07 07:20:16;;;;;;;0.90;0.90;;;;;;;;;;4978309;28;20205;-73
2022/01/07 07:22:43;;;;;;;0.50;0.50;;;;;;;;;;4980058;28;20209;-74
2022/01/07 07:25:11;;;;;;;0.87;0.70;;;;;;;;;;4981908;28;20240;-73
2022/01/07 07:27:38;;;;;;;0.30;0.30;;;;;;;;;;4985019;28;20198;-73
2022/01/07 07:30:09;;;;;;;2.90;0.60;;;;;;;;;;4983566;28;20209;-73
2022/01/07 07:32:38;;;;;;;0.77;0.77;;;;;;;;;;4986222;28;20670;-73
2022/01/07 07:36:26;;;;;;;5.53;1.23;;;;;;;;;;4984821;28;20595;-73
2022/01/07 07:37:53;;;;;;;0.33;0.33;;;;;;;;;;4979088;28;20205;-73
2022/01/07 07:40:20;;;;;;;2.90;1.93;;;;;;;;;;4976128;28;20332;-73
2022/01/07 07:42:47;;;;;;;0.80;0.80;;;;;;;;;;4980597;28;20201;-73
2022/01/07 07:45:16;;;;;;;0.57;0.57;;;;;;;;;;4980518;28;20209;-72
2022/01/07 07:47:44;;;;;;;0.57;0.57;;;;;;;;;;4986051;28;20205;-73
2022/01/07 07:50:11;;;;;;;4.07;1.57;;;;;;;;;;4988034;28;20197;-73
2022/01/07 07:52:39;;;;;;;1.93;1.63;;;;;;;;;;4985292;28;20206;-73
2022/01/07 07:55:06;;;;;;;0.20;0.20;;;;;;;;;;4986241;28;20237;-73
2022/01/07 07:57:34;;;;;;;0.20;0.20;;;;;;;;;;4984853;28;20197;-73
2022/01/07 08:00:03;;;;;;;0.80;0.80;;;;;;;;;;4976397;28;20217;-73
2022/01/07 08:02:31;;;;;;;1.40;0.87;;;;;;;;;;4974921;28;20220;-74
2022/01/07 08:04:59;;;;;;;0.83;0.83;;;;;;;;;;4976634;28;20579;-73
2022/01/07 08:07:26;;;;;;;2.17;2.07;;;;;;;;;;4972509;28;20228;-73
2022/01/07 08:09:54;;;;;;;1.53;0.67;;;;;;;;;;4978156;28;20209;-73
2022/01/07 08:12:27;;;;;;;0.73;0.50;;;;;;;;;;4985267;28;21002;-74
2022/01/07 08:17:40;;;;;;;0.97;0.97;;;;;;;;;;4977064;28;20776;-73
2022/01/07 08:20:08;;;;;;;0.80;0.80;;;;;;;;;;4978354;28;20205;-73
2022/01/07 08:22:36;;;;;;;15.97;1.37;;;;;;;;;;4978596;28;20198;-73
2022/01/07 08:25:04;;;;;;;0.93;0.93;;;;;;;;;;4978665;28;20252;-74
2022/01/07 08:27:31;;;;;;;0.20;0.20;;;;;;;;;;4975895;28;20575;-74
2022/01/07 08:30:03;;;;;;;0.33;0.33;;;;;;;;;;4978941;28;20220;-76
2022/01/07 08:35:17;;;;;;;0.30;0.30;;;;;;;;;;4974338;28;20299;-73
2022/01/07 08:37:44;;;;;;;0.73;0.53;;;;;;;;;;4975284;28;20301;-74
2022/01/07 08:40:12;;;;;;;0.07;0.07;;;;;;;;;;4972146;28;20679;-73
2022/01/07 08:42:40;;;;;;;0.23;0.23;;;;;;;;;;4974159;28;20205;-73
2022/01/07 08:45:08;;;;;;;0.43;0.30;;;;;;;;;;4973935;28;20214;-71
2022/01/07 08:47:35;;;;;;;0.43;0.43;;;;;;;;;;4974317;28;20204;-75
2022/01/07 08:50:02;;;;;;;2.57;1.93;;;;;;;;;;4975043;28;20205;-74
2022/01/07 08:52:31;;;;;;;0.93;0.93;;;;;;;;;;4970793;28;20205;-75
2022/01/07 08:54:58;;;;;;;1.00;0.90;;;;;;;;;;4971830;28;20238;-74
2022/01/07 08:57:26;;;;;;;0.47;0.40;;;;;;;;;;4970631;28;20663;-79
2022/01/07 08:59:53;;;;;;;0.00;0.00;;;;;;;;;;4972979;28;20210;-73
2022/01/07 09:02:21;;;;;;;0.30;0.30;;;;;;;;;;4973309;28;20206;-76
2022/01/07 09:04:48;;;;;;;0.47;0.47;;;;;;;;;;4973564;28;20560;-79
2022/01/07 09:07:15;;;;;;;0.00;0.00;;;;;;;;;;4971640;28;20590;-73
2022/01/07 09:09:44;;;;;;;0.00;0.00;;;;;;;;;;4972809;28;20556;-72
2022/01/07 09:12:12;;;;;;;0.13;0.13;;;;;;;;;;4969670;28;20308;-73
2022/01/07 09:14:39;;;;;;;0.83;0.43;;;;;;;;;;4973050;28;20686;-72
2022/01/07 09:17:07;;;;;;;0.03;0.03;;;;;;;;;;4971910;28;20217;-71
2022/01/07 09:19:34;;;;;;;0.30;0.30;;;;;;;;;;4971255;28;20235;-72
2022/01/07 09:22:02;;;;;;;0.67;0.67;;;;;;;;;;4971580;28;20212;-75
2022/01/07 09:24:29;;;;;;;0.00;0.00;;;;;;;;;;4971590;28;20316;-70
2022/01/07 09:26:59;;;;;;;0.00;0.00;;;;;;;;;;4970106;28;20667;-71
2022/01/07 09:29:27;;;;;;;0.00;0.00;;;;;;;;;;4971483;28;20201;-72
2022/01/07 09:31:55;;;;;;;0.37;0.37;;;;;;;;;;4970272;28;20202;-71
2022/01/07 09:34:22;;;;;;;5.50;1.27;;;;;;;;;;4972943;28;20205;-70
2022/01/07 09:36:49;;;;;;;0.10;0.03;;;;;;;;;;4971168;28;20241;-75
2022/01/07 09:39:17;;;;;;;0.33;0.20;;;;;;;;;;4970036;28;20564;-70
2022/01/07 09:41:44;;;;;;;0.00;0.00;;;;;;;;;;4972669;28;20217;-70
2022/01/07 09:44:14;;;;;;;0.57;0.57;;;;;;;;;;4972761;28;20221;-68
2022/01/07 09:46:42;;;;;;;0.60;0.60;;;;;;;;;;4973782;28;20485;-72
2022/01/07 09:49:10;;;;;;;0.10;0.10;;;;;;;;;;4973167;28;20690;-69
2022/01/07 09:51:38;;;;;;;0.37;0.37;;;;;;;;;;4968570;28;20292;-73
2022/01/07 09:54:06;;;;;;;0.30;0.30;;;;;;;;;;4978665;28;20201;-75
2022/01/07 09:56:33;;;;;;;1.50;0.43;;;;;;;;;;4974858;28;20671;-71
2022/01/07 09:59:04;;;;;;;0.20;0.20;;;;;;;;;;4973557;28;20300;-70
2022/01/07 10:01:53;;;;;;;1.03;0.33;;;;;;;;;;4971891;28;20220;-70
2022/01/07 10:04:26;;;;;;;0.20;0.20;;;;;;;;;;4972818;28;20302;-74
2022/01/07 10:07:10;;;;;;;0.00;0.00;;;;;;;;;;4982239;28;20278;-72
2022/01/07 10:09:37;;;;;;;0.00;0.00;;;;;;;;;;4988577;28;20221;-74
2022/01/07 10:12:06;;;;;;;0.40;0.40;;;;;;;;;;4972078;28;20216;-73
2022/01/07 10:14:36;;;;;;;0.10;0.10;;;;;;;;;;4970522;28;20720;-76
2022/01/07 10:17:05;;;;;;;0.23;0.23;;;;;;;;;;4969701;28;20840;-75
2022/01/07 10:19:34;;;;;;;0.00;0.00;;;;;;;;;;4975120;28;20220;-71
2022/01/07 10:22:02;;;;;;;5.87;1.63;;;;;;;;;;4976490;28;20228;-71
2022/01/07 10:24:30;;;;;;;0.00;0.00;;;;;;;;;;4977761;28;20239;-74
2022/01/07 10:27:11;;;;;;;0.37;0.27;;;;;;;;;;4973809;28;20205;-73
2022/01/07 10:29:42;;;;;;;0.10;0.10;;;;;;;;;;4968934;28;20198;-77
2022/01/07 10:32:24;;;;;;;0.10;0.10;;;;;;;;;;4968175;28;20205;-74
2022/01/07 10:35:08;;;;;;;0.27;0.27;;;;;;;;;;4971689;28;20270;-79
2022/01/07 10:37:36;;;;;;;1.73;0.93;;;;;;;;;;4969943;28;20668;-77
2022/01/07 10:40:20;;;;;;;0.93;0.23;;;;;;;;;;4969387;28;20295;-73
2022/01/07 10:42:48;;;;;;;2.00;0.83;;;;;;;;;;4971173;28;20219;-74
2022/01/07 10:45:15;;;;;;;0.00;0.00;;;;;;;;;;4970153;28;21123;-76
2022/01/07 10:47:44;;;;;;;0.00;0.00;;;;;;;;;;4978468;28;20218;-75
2022/01/07 10:50:15;;;;;;;3.40;1.07;;;;;;;;;;4977389;28;20206;-73
2022/01/07 10:52:43;;;;;;;0.20;0.13;;;;;;;;;;4980319;28;20690;-71
2022/01/07 10:55:12;;;;;;;0.60;0.50;;;;;;;;;;4977773;28;20659;-70
2022/01/07 10:57:41;;;;;;;1.50;0.70;;;;;;;;;;4976253;28;22225;-70
2022/01/07 11:00:09;;;;;;;0.60;0.60;;;;;;;;;;4976706;28;20271;-71
2022/01/07 11:02:37;;;;;;;0.77;0.77;;;;;;;;;;4977476;28;20689;-70
2022/01/07 11:05:06;;;;;;;0.87;0.77;;;;;;;;;;4975493;28;20224;-70
2022/01/07 11:07:33;;;;;;;1.27;1.17;;;;;;;;;;4977307;28;20219;-70
2022/01/07 11:10:01;;;;;;;1.37;0.57;;;;;;;;;;4974558;28;20224;-70
2022/01/07 11:12:30;;;;;;;0.60;0.43;;;;;;;;;;4975407;28;20216;-71
2022/01/07 11:14:58;;;;;;;2.00;1.20;;;;;;;;;;4976911;28;20636;-71
2022/01/07 11:17:27;;;;;;;0.00;0.00;;;;;;;;;;4979948;28;20299;-71
2022/01/07 11:19:55;;;;;;;0.00;0.00;;;;;;;;;;4980710;28;20206;-71
2022/01/07 11:22:24;;;;;;;1.20;0.10;;;;;;;;;;4981917;28;20308;-70
2022/01/07 11:24:55;;;;;;;0.10;0.10;;;;;;;;;;4980181;28;20641;-71
2022/01/07 11:27:23;;;;;;;1.20;0.77;;;;;;;;;;4979635;28;20209;-70
2022/01/07 11:29:55;;;;;;;0.00;0.00;;;;;;;;;;4979006;28;20570;-71
2022/01/07 11:32:40;;;;;;;0.83;0.30;;;;;;;;;;4973114;28;20314;-70
2022/01/07 11:35:26;;;;;;;0.10;0.10;;;;;;;;;;4977690;28;20209;-70
2022/01/07 11:37:56;;;;;;;0.53;0.50;;;;;;;;;;4980817;28;20662;-73
2022/01/07 11:40:41;;;;;;;0.40;0.33;;;;;;;;;;4976744;28;20201;-70
2022/01/07 11:43:25;;;;;;;0.00;0.00;;;;;;;;;;4976092;28;20225;-70
2022/01/07 11:45:53;;;;;;;0.30;0.30;;;;;;;;;;4979642;28;20209;-70
2022/01/07 11:48:23;;;;;;;0.07;0.07;;;;;;;;;;4980468;28;20551;-70
2022/01/07 11:51:10;;;;;;;0.30;0.30;;;;;;;;;;4980586;28;20362;-70
2022/01/07 11:53:56;;;;;;;0.40;0.33;;;;;;;;;;4980956;28;20256;-69
2022/01/07 11:56:26;;;;;;;0.10;0.10;;;;;;;;;;4977210;28;20276;-70
2022/01/07 11:58:55;;;;;;;0.10;0.10;;;;;;;;;;4979537;28;20213;-74
2022/01/07 12:01:26;;;;;;;2.47;0.57;;;;;;;;;;4977062;28;20206;-70
2022/01/07 12:03:56;;;;;;;1.17;0.10;;;;;;;;;;4979500;28;20336;-70
2022/01/07 12:06:44;;;;;;;1.73;0.57;;;;;;;;;;4978008;28;20214;-70
2022/01/07 12:09:16;;;;;;;0.00;0.00;;;;;;;;;;4980247;28;20206;-70
2022/01/07 12:11:46;;;;;;;0.13;0.13;;;;;;;;;;4978953;28;20301;-71
2022/01/07 12:14:15;;;;;;;0.10;0.10;;;;;;;;;;4974935;28;20213;-70
2022/01/07 12:16:44;;;;;;;3.10;1.37;;;;;;;;;;4973790;28;20226;-70
2022/01/07 12:19:53;;;;;;;0.10;0.10;;;;;;;;;;4974562;28;20622;-73
2022/01/07 12:22:21;;;;;;;0.20;0.20;;;;;;;;;;4969797;28;20453;-73
2022/01/07 12:24:49;;;;;;;0.00;0.00;;;;;;;;;;4973763;28;20237;-74
2022/01/07 12:27:20;;;;;;;0.30;0.30;;;;;;;;;;4973635;28;20326;-73
2022/01/07 12:29:48;;;;;;;0.33;0.23;;;;;;;;;;4980298;28;20308;-72
2022/01/07 12:32:18;;;;;;;0.03;0.03;;;;;;;;;;4973924;28;20212;-72
2022/01/07 12:34:47;;;;;;;0.00;0.00;;;;;;;;;;4973303;28;20224;-73
2022/01/07 12:37:15;;;;;;;3.60;0.97;;;;;;;;;;4978501;28;20225;-70
2022/01/07 12:39:43;;;;;;;0.00;0.00;;;;;;;;;;4977901;28;20194;-74
2022/01/07 12:42:11;;;;;;;0.00;0.00;;;;;;;;;;4978551;28;20220;-74
2022/01/07 12:44:41;;;;;;;0.10;0.10;;;;;;;;;;4979332;28;20731;-74
2022/01/07 12:47:09;;;;;;;0.20;0.20;;;;;;;;;;4973308;28;20221;-72
2022/01/07 12:49:39;;;;;;;0.67;0.20;;;;;;;;;;4971378;28;20201;-72
2022/01/07 12:52:07;;;;;;;0.10;0.10;;;;;;;;;;4973239;28;20210;-72
2022/01/07 12:54:35;;;;;;;0.53;0.27;;;;;;;;;;4971889;28;20206;-70
2022/01/07 12:57:03;;;;;;;0.20;0.20;;;;;;;;;;4974532;28;20249;-75
2022/01/07 12:59:30;;;;;;;0.20;0.20;;;;;;;;;;4970398;28;20198;-70
2022/01/07 13:02:00;;;;;;;0.40;0.40;;;;;;;;;;4980853;28;20213;-70
2022/01/07 13:04:27;;;;;;;0.10;0.10;;;;;;;;;;4980582;28;20209;-70
2022/01/07 13:06:56;;;;;;;0.10;0.10;;;;;;;;;;4984283;28;20226;-70
2022/01/07 13:09:24;;;;;;;8.50;1.50;;;;;;;;;;4982397;28;20209;-70
2022/01/07 13:11:53;;;;;;;0.07;0.07;;;;;;;;;;4982971;28;20201;-69
2022/01/07 13:14:21;;;;;;;0.13;0.13;;;;;;;;;;4980449;28;20206;-70
2022/01/07 13:16:52;;;;;;;0.37;0.30;;;;;;;;;;4981247;28;20238;-69
2022/01/07 13:19:22;;;;;;;0.30;0.10;;;;;;;;;;4978751;28;20214;-70
2022/01/07 13:21:50;;;;;;;0.00;0.00;;;;;;;;;;4981458;28;20213;-70
2022/01/07 13:24:18;;;;;;;0.07;0.07;;;;;;;;;;4979957;28;20230;-70
2022/01/07 13:26:51;;;;;;;0.63;0.37;;;;;;;;;;4980544;28;20201;-70
2022/01/07 13:29:20;;;;;;;0.00;0.00;;;;;;;;;;4978465;28;20232;-70
2022/01/07 13:31:48;;;;;;;0.67;0.30;;;;;;;;;;4979211;28;20335;-70
2022/01/07 13:34:24;;;;;;;0.53;0.23;;;;;;;;;;4980171;28;20218;-71
2022/01/07 13:36:52;;;;;;;0.37;0.10;;;;;;;;;;4981930;28;20239;-70
2022/01/07 13:39:21;;;;;;;0.00;0.00;;;;;;;;;;4978749;28;20213;-71
2022/01/07 13:41:58;;;;;;;0.13;0.10;;;;;;;;;;4980014;28;20206;-71
2022/01/07 13:44:25;;;;;;;0.10;0.00;;;;;;;;;;4979315;28;20237;-71
2022/01/07 13:46:54;;;;;;;0.00;0.00;;;;;;;;;;4977034;28;20213;-71
2022/01/07 13:49:22;;;;;;;0.47;0.30;;;;;;;;;;4973955;28;20214;-70
2022/01/07 13:51:57;;;;;;;0.00;0.00;;;;;;;;;;4976462;28;20208;-71
2022/01/07 13:54:25;;;;;;;0.00;0.00;;;;;;;;;;4976173;28;22358;-70
2022/01/07 13:57:00;;;;;;;0.00;0.00;;;;;;;;;;4974634;28;20256;-69
2022/01/07 13:59:28;;;;;;;0.50;0.50;;;;;;;;;;4973991;28;20670;-70
2022/01/07 14:02:00;;;;;;;0.43;0.40;;;;;;;;;;4975336;28;20205;-69
2022/01/07 14:04:43;;;;;;;0.67;0.63;;;;;;;;;;4977404;28;20202;-69
2022/01/07 14:07:31;;;;;;;0.93;0.57;;;;;;;;;;4979551;28;20666;-69
2022/01/07 14:10:09;;;;;;;0.00;0.00;;;;;;;;;;4977650;28;20223;-70
2022/01/07 14:12:37;;;;;;;0.00;0.00;;;;;;;;;;4980352;28;20316;-70
2022/01/07 14:15:06;;;;;;;0.20;0.20;;;;;;;;;;4982928;28;20213;-69
2022/01/07 14:17:34;;;;;;;0.00;0.00;;;;;;;;;;4979068;28;20221;-69
2022/01/07 14:20:03;;;;;;;4.43;0.30;;;;;;;;;;4979784;28;20202;-69
2022/01/07 14:22:34;;;;;;;0.27;0.27;;;;;;;;;;4974582;28;20296;-70
2022/01/07 14:25:02;;;;;;;0.00;0.00;;;;;;;;;;4982563;28;20718;-70
2022/01/07 14:27:31;;;;;;;0.10;0.10;;;;;;;;;;4986352;28;20217;-71
2022/01/07 14:29:58;;;;;;;0.10;0.00;;;;;;;;;;4987425;28;20205;-70
2022/01/07 14:32:26;;;;;;;7.53;1.13;;;;;;;;;;4978560;28;20213;-71
2022/01/07 14:34:57;;;;;;;4.53;0.20;;;;;;;;;;4979721;28;20666;-70
2022/01/07 14:37:24;;;;;;;0.20;0.20;;;;;;;;;;4977637;28;20241;-70
2022/01/07 14:39:53;;;;;;;0.10;0.10;;;;;;;;;;4982057;28;20223;-69
2022/01/07 14:42:21;;;;;;;1.97;1.07;;;;;;;;;;4982310;28;20217;-71
2022/01/07 14:44:49;;;;;;;0.50;0.33;;;;;;;;;;4985821;28;20214;-71
2022/01/07 14:47:17;;;;;;;0.20;0.20;;;;;;;;;;4979683;28;20563;-72
2022/01/07 14:49:45;;;;;;;0.10;0.10;;;;;;;;;;4973617;28;20210;-73
2022/01/07 14:52:13;;;;;;;0.00;0.00;;;;;;;;;;4978798;28;20217;-69
2022/01/07 14:54:40;;;;;;;0.00;0.00;;;;;;;;;;4976495;28;20209;-70
2022/01/07 14:57:09;;;;;;;0.00;0.00;;;;;;;;;;4984505;28;20279;-70
2022/01/07 14:59:36;;;;;;;0.20;0.17;;;;;;;;;;4978961;28;20212;-70